Airfield :
LOGIN :

Register | Disclaimer

   EN    FR    IT 

 










Legend :    VFR   Marginal VFR   IFR   Intensive IFR   Very Intensive IFR
Visi :
Ceiling :
>= 8 km
>= 3000ft
5 to 8 km
1000 to 3000 ft
1500m to 5 km
500 to 1000 ft
800 to 1500m
200 to 500 ft
< 800m
< 200 ft
Symbols :   Thunderstorms  Fog  Heavy snow  Heavy precipitations  Wind > 20 kt
SIGMETs :     Misc.  Thunderstorms  Icing  Turbulence  Mountain Waves  Volcanic Ashes







- Airport Elevation : 978 ft
- IATA code : LNZ


LOWL - Linz

CURRENT METAR :
  • 230850Z 28005KT 0300 R26/0400D FZFG BKN001 M01/M02 Q1015 BECMG 3000 BR FEW005

EXPIRED METARs :
  • 230820Z 29003KT 270V330 0350 R26/0350N FZFG VV001 M02/M02 Q1014 TEMPO 0600 BKN002
  • 230750Z 30002KT 0300 R26/0350N FZFG VV001 M02/M02 Q1014 TEMPO 0500 BKN002
  • 230720Z VRB02KT 0250 R26/0300N FZFG BKN001 M02/M02 Q1013 TEMPO 0500 BKN002
  • 230650Z VRB02KT 0250 R26/0375N FZFG BKN001 M02/M02 Q1013 TEMPO 0500 VV002
  • 230620Z VRB02KT 0550 R26/0550N FZFG BKN001 M02/M02 Q1013 TEMPO 0200 VV001

TAF COR TAF LOWL
Valid from the 23 at 06:00 until the 24 at 06:00 UTC


230532Z 2306/2406 VRB02KT 0200 FZFG VV001 TX06/2314Z TNM01/2306Z
TEMPO 2306/2310 0800 BCFG FEW001 OVC003
FM231100 VRB02KT 6000 NSW FEW030 SCT300
BECMG 2319/2321 0600 BCFG NSC
BECMG 2321/2323 0200 FZFG VV002
TEMPO 2323/2406 09003KT 0800 FZBCFG FEW002 BKN003
No reported NOTAMs for that airfield.



MET'MAP, your aeronautical weather chart ! - Copyright ORBIFLY December 2007 - Disclaimer

ORBIFLY MET'MAP TEAM :

Programming & Development : Alexandra Zaïnal
Concept & Development : Baudouin d'Aumeries
Co-Development & Prog : Marc-Olivier Méhu
Technical & hardware support : Manuel Goepfert

Contact : metmap@orbifly.com




SOURCES & CREDITS :

   NOAA